Sagiv Natcho

チーフスカウト - Hapoel Kfar Saba
3 4月 2027
土曜日
処理

性格

適応力 (1) 野心 (9) 物議 (13) 忠誠心 (14) プレッシャー耐性 (8) プロ意識 (4) スポーツマンシップ (2) 気質 (9)

プロフィール

指導スタイル 民主型
ライセンス 国内A級
決断力 9
人材管理 9
モチベーション 8
規律 8
仕事満足度
50%
疲労度
0%
役職 チーフスカウト
給与 37.7K 週給
契約 14.03.2029

パフォーマンス

態度 普通
トレーニング効果
17%
選手育成
20%
怪我予防
20%
戦術実行
35%

最近の出来事

選手を視察 たった今
補強会議に出席 たった今
補強会議に出席 たった今
補強会議に出席 7日前
選手を視察 7日前
選手を視察 7日前
選手を視察 7日前
選手を視察 7日前

監視中

168
選手 クラブ 状態 能力 自信 視察済み 最終確認 最新投票
Félix Villacorta Orenburg アクティブ 112 / 105 40% 2 02.04.2027 -
Michele Emmausso Cosenza アクティブ 110 / 95 40% 1 02.04.2027 -
Lucas Cano All Boys アクティブ 118 / 114 40% 2 30.03.2027 -
Alejandro Melo Temperley アクティブ 117 / 124 40% 4 30.03.2027 -
Luca Maiorano Waasland-Beveren アクティブ 87 / 90 40% 2 29.03.2027 -
Juan David Rueda Alianza Petrolera アクティブ 117 / 115 40% 1 29.03.2027 -
Sagi Dror Bnei Yehuda アクティブ 98 / 94 40% 3 28.03.2027 -
Sam Nombe Milton Keynes Dons アクティブ 103 / 101 40% 6 28.03.2027 -
Said Aliev Rotor アクティブ 108 / 101 40% 2 27.03.2027 -
Marcus Browne AFC Wimbledon アクティブ 93 / 96 40% 1 27.03.2027 -
Tyrese Shade Burton Albion アクティブ 93 / 92 40% 3 26.03.2027 -
Stephen Humphrys Bradford City アクティブ 92 / 119 40% 2 26.03.2027 -
Mésaque Djú Portimonense アクティブ 101 / 108 40% 1 25.03.2027 -
Milan Vidakov Radnicki 1923 却下 109 / 97 40% 2 20.03.2027 情報不足
Hakeeb Adelakun Doncaster Rovers アクティブ 121 / 100 40% 3 20.03.2027 -
Hernán Luna NK Domzale アクティブ 113 / 93 40% 3 19.03.2027 -
Ravve Assayag Bnei Yehuda アクティブ 79 / 95 40% 2 19.03.2027 -
Álex Arce Independiente Rivadavia アクティブ 125 / 136 40% 1 18.03.2027 -
Kimarni Smith Newport County アクティブ 97 / 95 40% 1 18.03.2027 -
Matty Stevens AFC Wimbledon アクティブ 110 / 105 40% 3 17.03.2027 -
Danila Shilov Dinamo Stavropol アクティブ 83 / 88 40% 2 15.03.2027 -
Leonardo Bellini Pianese アクティブ 84 / 85 40% 1 15.03.2027 -
Mascote Botev Plovdiv アクティブ 113 / 88 40% 4 14.03.2027 -
Simone Ianesi Pianese アクティブ 89 / 105 40% 2 14.03.2027 -
Stav Nachmani Bnei Yehuda アクティブ 111 / 106 40% 1 13.03.2027 -
Gabriel Castillo Valledupar アクティブ 123 / 123 40% 1 12.03.2027 -
Midana Cassamá Portimonense アクティブ 101 / 108 40% 3 10.03.2027 -
Piotr Samiec-Talar Slask アクティブ 102 / 102 40% 3 09.03.2027 -
Ivan Luquetta Neftekhimik アクティブ 109 / 101 40% 4 08.03.2027 -
Mo Dauda Portimonense アクティブ 88 / 95 40% 2 08.03.2027 -
Antonio Vutov Arda アクティブ 119 / 96 40% 4 05.03.2027 -
Vladislav Yakovlev Volga アクティブ 110 / 91 40% 1 04.03.2027 -
Rodrigo Marquês Oliveirense アクティブ 79 / 90 40% 1 04.03.2027 -
Emil Stoev Slavia Sofia アクティブ 100 / 100 40% 3 01.03.2027 -
Mamadou Diallo CSKA 1948 アクティブ 116 / 112 40% 4 28.02.2027 -
Wilson Harris Bnei Yehuda アクティブ 110 / 100 40% 3 27.02.2027 -
Ibourahima Baldé Giugliano アクティブ 86 / 100 40% 1 27.02.2027 -
Rashid Magomedov Neftekhimik アクティブ 109 / 92 40% 2 23.02.2027 -
Marcos Cuenca Zaragoza アクティブ 119 / 120 40% 1 21.02.2027 -
Georgi Minchev Lokomotiv Sofia アクティブ 109 / 108 40% 2 18.02.2027 -
Václav Sejk Sigma Olomouc アクティブ 96 / 112 40% 2 17.02.2027 -
Kane Drummond Oldham Athletic アクティブ 106 / 101 40% 1 17.02.2027 -
Ahmed Salman Bnei Sakhnin アクティブ 95 / 91 40% 1 16.02.2027 -
Sergio González Bunyodkor アクティブ 102 / 115 40% 5 15.02.2027 -
Luis Fernando Santa Clara アクティブ 111 / 117 40% 3 15.02.2027 -
Stanislav Biblyk Chaika アクティブ 79 / 98 40% 3 14.02.2027 -
Jacobo Alcalde SKA Khabarovsk 却下 85 / 84 40% 3 11.02.2027 却下
Dmitry Tsypchenko Torpedo Moscow アクティブ 123 / 108 40% 1 10.02.2027 -
Ilja Safronov Rotor アクティブ 85 / 98 40% 2 05.02.2027 -
Alexandr Yushin Torpedo Moscow アクティブ 108 / 113 40% 4 04.02.2027 -
Kamran Aliev SKA Khabarovsk アクティブ 116 / 108 40% 3 31.01.2027 -
Jaze Kabia Grimsby Town アクティブ 103 / 103 40% 1 31.01.2027 -
Mohammed Khatib Hapoel Acre アクティブ 85 / 89 40% 1 30.01.2027 -
Dilan Ortíz Ufa アクティブ 89 / 112 40% 1 27.01.2027 -
Anthony Lokosa Tarxien Rainbows アクティブ 110 / 102 40% 3 22.01.2027 -
Alexey Kashtanov Torpedo Moscow アクティブ 103 / 112 40% 1 21.01.2027 -
Javon East Hapoel Beer Sheva アクティブ 113 / 101 40% 1 19.01.2027 -
Dominik Kocsis Debrecen アクティブ 121 / 100 40% 1 18.01.2027 -
Liran Hazan Maccabi Petach Tikva アクティブ 91 / 106 40% 1 17.01.2027 -
Beryly Lubala CSKA 1948 アクティブ 103 / 90 40% 2 16.01.2027 -
Leon Sabua Fakel アクティブ 97 / 94 40% 2 15.01.2027 -
Alexandr Saplinov Volga アクティブ 111 / 97 40% 4 14.01.2027 -
Elia Petrelli Forli アクティブ 84 / 91 40% 1 14.01.2027 -
Alexandr Dolgov Amkar アクティブ 100 / 89 40% 7 12.01.2027 -
Georgy Gongadze Ufa アクティブ 88 / 103 40% 2 10.01.2027 -
Martín Garnerone Estudiantes アクティブ 131 / 117 40% 1 09.01.2027 -
Liran Shpigel Maccabi Tel Aviv アクティブ 90 / 107 55% 1 06.01.2027 -
Chinonso Offor Baltika アクティブ 103 / 108 40% 1 06.01.2027 -
David Karaev KAMAZ アクティブ 96 / 99 40% 2 04.01.2027 -
Lewis McCann Fleetwood Town アクティブ 90 / 90 40% 2 02.01.2027 -
Dmytro Shcherbak Montana アクティブ 80 / 84 40% 3 01.01.2027 -
Jubayer Bushnak Bnei Sakhnin アクティブ 93 / 91 55% 1 01.01.2027 観察
Artur Miranyan Bnei Sakhnin アクティブ 107 / 104 40% 2 31.12.2026 -
Brandon Caicedo Atletico Bucaramanga アクティブ 118 / 95 40% 3 30.12.2026 -
Jonathan Okoronkwo Torpedo Moscow アクティブ 92 / 107 40% 1 30.12.2026 -
Stephen Duke-McKenna KAMAZ アクティブ 93 / 87 40% 1 29.12.2026 -
Antonio Jakir Slaven Belupo アクティブ 109 / 114 40% 1 29.12.2026 -
Jacobo Escobar Sokol アクティブ 103 / 85 40% 1 29.12.2026 -
Lucio Garberi Lokomotiv Plovdiv アクティブ 94 / 95 40% 2 24.12.2026 -
Tomasz Walczak MFK Michalovce アクティブ 109 / 100 40% 1 23.12.2026 -
José Bica Leixões アクティブ 113 / 112 40% 1 23.12.2026 -
Georg Stojanovski Spartak 1918 アクティブ 80 / 89 40% 2 22.12.2026 -
Géza Dávid Turi Grimsby Town アクティブ 87 / 102 40% 1 22.12.2026 -
Remeao Hutton Gillingham アクティブ 77 / 83 40% 1 21.12.2026 -
Mark Helm Fleetwood Town アクティブ 98 / 111 40% 1 21.12.2026 -
Júnior Brandão Madura United アクティブ 120 / 114 40% 2 19.12.2026 -
Migran Ageyan Ufa アクティブ 83 / 93 40% 3 18.12.2026 -
Osama Khalaila Hapoel Acre アクティブ 86 / 95 40% 2 17.12.2026 -
Jimmy Evans Universidad Catolica アクティブ 100 / 103 40% 1 17.12.2026 -
Sergio Castel Persik アクティブ 123 / 117 40% 2 16.12.2026 -
Patryk Szwedzik Ruch アクティブ 97 / 103 40% 1 16.12.2026 -
Claudio Salto Almagro アクティブ 99 / 109 40% 1 15.12.2026 -
Ezra Walian Persik アクティブ 94 / 100 40% 1 13.12.2026 -
Brandon Hanlan Doncaster Rovers アクティブ 100 / 90 40% 2 12.12.2026 -
Luis Alberto Márquez Yenisey アクティブ 85 / 101 40% 1 11.12.2026 -
Ivo Costantino Danubio 却下 101 / 105 40% 1 09.12.2026 情報不足
Máté Sajbán Diosgyor アクティブ 83 / 108 40% 1 07.12.2026 -
Ruslan Myalkovskiy Lokomotiv Moscow アクティブ 109 / 94 40% 3 05.12.2026 -
Sebastián Valenzuela Yenisey アクティブ 92 / 87 40% 1 04.12.2026 -
János Hahn Paksi アクティブ 91 / 115 40% 1 04.12.2026 -
Sebastián Cocimano Nueva Chicago アクティブ 122 / 109 40% 1 04.12.2026 -
Daniil Penchikov Arsenal Tula アクティブ 102 / 96 40% 1 01.12.2026 -
Artem Simonyan Rotor アクティブ 97 / 94 40% 1 01.12.2026 -
Marcelo Torres Gimnasia La Plata アクティブ 122 / 123 40% 3 29.11.2026 -
Jhonathan Caicedo Arda アクティブ 97 / 91 40% 1 26.11.2026 -
David Savarino Llaneros アクティブ 97 / 112 40% 1 26.11.2026 -
Kevin Lara Chaika アクティブ 104 / 81 40% 1 26.11.2026 -
David Gallardo Gimnasia y Esgrima アクティブ 97 / 113 40% 1 26.11.2026 -
Hazem Mastouri Dinamo Makhachkala アクティブ 122 / 104 40% 2 24.11.2026 -
Danil Lipovoy Ufa アクティブ 88 / 99 40% 1 23.11.2026 -
Gastón Mansilla Maipú アクティブ 109 / 102 40% 1 23.11.2026 -
Marco Bustillo Zamora アクティブ 94 / 114 40% 1 20.11.2026 -
Roberto Iliev Slavia Sofia アクティブ 78 / 101 40% 2 18.11.2026 -
Viktor Hamsik FK Senica アクティブ 97 / 94 40% 1 17.11.2026 -
Valentín Fenoglio Estudiantes アクティブ 105 / 119 40% 1 17.11.2026 -
Imeda Ashortia Andijon アクティブ 115 / 103 40% 1 13.11.2026 -
Adam Vošnjak Rudar Velenje アクティブ 110 / 85 40% 3 11.11.2026 -
Boris Kopitović Bali United アクティブ 103 / 93 40% 1 11.11.2026 -
Ilja Stefanovich Leningradets アクティブ 84 / 100 40% 1 10.11.2026 -
Jude Soonsup-Bell Hapoel Acre アクティブ 84 / 90 40% 2 07.11.2026 -
Brandon Márquez Sarmiento アクティブ 111 / 102 40% 1 07.11.2026 -
Elías Már Ómarsson Vikingur アクティブ 100 / 99 40% 2 06.11.2026 -
Rodrigo Mosqueda MFK Skalica アクティブ 106 / 97 40% 1 06.11.2026 -
Agustín Obregón River Plate アクティブ 91 / 106 40% 1 06.11.2026 -
Patrick Schmidt Tarxien Rainbows アクティブ 100 / 90 40% 1 01.11.2026 -
Martin Boakye Andijon アクティブ 114 / 115 40% 1 01.11.2026 -
Jonathan Vega NK Zavrc アクティブ 90 / 104 40% 1 30.10.2026 -
Magnus Lankhof Dahlby Stabaek アクティブ 87 / 114 40% 1 29.10.2026 -
Vlatko Stojanovski Mashal アクティブ 106 / 90 40% 1 25.10.2026 -
Kristján Flóki Finnbogason FH アクティブ 95 / 104 40% 1 23.10.2026 -
Bilolxon Toshmirzayev Bunyodkor アクティブ 86 / 89 40% 1 21.10.2026 -
Moussa Sidibé Bhayangkara Presisi アクティブ 91 / 104 40% 2 14.10.2026 -
David Barbona Defensa y Justicia アクティブ 119 / 119 40% 1 12.10.2026 -
Uroš Kojić AGMK アクティブ 106 / 105 40% 1 09.10.2026 -
Valentín Depietri Talleres アクティブ 137 / 131 40% 1 09.10.2026 -
Dejan Tumbas Persis アクティブ 100 / 91 40% 1 07.10.2026 -
Juan Cruz Zurbriggen San Telmo アクティブ 84 / 96 40% 1 06.10.2026 -
Denys Rezepov Nyva アクティブ 94 / 101 40% 1 05.10.2026 -
Alexis Gómez Persijap アクティブ 89 / 103 40% 1 04.10.2026 -
Darío Rodríguez IFK Mariehamn アクティブ 119 / 95 40% 3 03.10.2026 -
José Barragán Zamora アクティブ 100 / 105 40% 1 03.10.2026 -
Zabihillo O'rinboyev Navbahor アクティブ 105 / 99 40% 1 02.10.2026 -
Jurica Poldrugač Rudes アクティブ 84 / 98 40% 2 26.09.2026 -
Agustín Bianciotti Metropolitanos アクティブ 105 / 114 40% 1 24.09.2026 -
Abdoulaye Diarra Persijap アクティブ 102 / 103 40% 1 23.09.2026 -
Ahmed Adebayo KTP アクティブ 110 / 92 40% 1 22.09.2026 -
Ramiro Ruiz Rodríguez Atlético Tucumán アクティブ 108 / 113 40% 2 21.09.2026 -
Enzo Larrosa Independiente Medellin アクティブ 120 / 116 40% 1 20.09.2026 -
Aron Elís Þrándarson Vikingur アクティブ 111 / 116 40% 1 19.09.2026 -
Alejandro Samudio Nacional アクティブ 95 / 118 40% 1 18.09.2026 -
Ruslan Apekov Torpedo Moscow アクティブ 118 / 98 40% 1 11.09.2026 -
Jeremiah Streng SJK アクティブ 83 / 83 40% 1 10.09.2026 -
Richard Martínez Ilves アクティブ 107 / 100 40% 1 10.09.2026 -
Sebastián Romero NK Zavrc アクティブ 82 / 99 40% 1 09.09.2026 -
Kristian Eriksen Molde アクティブ 127 / 114 40% 1 07.09.2026 -
Tiago Benzi Belgrano アクティブ 105 / 88 40% 1 05.09.2026 -
Lucas González Nacional アクティブ 110 / 113 40% 1 05.09.2026 -
Lukáš Juliš MSK Zilina アクティブ 119 / 104 40% 1 04.09.2026 -
Tiago Pucciarelli FK Senica アクティブ 82 / 102 40% 1 03.09.2026 -
Jordy Wehrmann Madura United アクティブ 114 / 111 40% 1 31.08.2026 -
Gerónimo Tomasetti Temperley アクティブ 118 / 105 40% 1 31.08.2026 -
Sávio PSM アクティブ 107 / 97 40% 1 29.08.2026 -
Preslav Borukov Lokomotiv Sofia アクティブ 87 / 92 40% 1 29.08.2026 -
Dalberto Arema アクティブ 109 / 116 40% 1 28.08.2026 -
Pepijn Doesburg AS Trencin アクティブ 118 / 110 40% 1 27.08.2026 -
Jakob Franz Pálsson Valur アクティブ 105 / 109 40% 1 24.08.2026 -
Josh Woods Accrington Stanley アクティブ 95 / 73 40% 1 05.08.2026 -
Roberto Riascos HIFK アクティブ 109 / 88 40% 1 05.08.2026 -